Аэропорт: Кемерово. Кемерово

ICAO: UNEE

METAR:
2018/09/23 11:00
UNEE 231100Z 21006MPS CAVOK 14/08 Q1011 R23/190060 NOSIG RMK QFE736
METAR:
2018/09/23 09:25
TAF UNEE 230800Z 2309/2409 18003G09MPS 9999 SCT020CB 
      TEMPO 2309/2409 4000 -SHRA BKN012CB 
      BECMG 2321/2322 24005G10MPS